»·PEaware :: N1812C KBUR-KLAS

N1812C :: KBUR-KLAS

FLIGHT INFORMATION

Flight Status: Arrived
Operator: Privately registered:
United States
More flights under this callsign
Pilot: David G. (31571)
Aircraft: MOONEY M-20 201 202 205 220 ATS MSE
(M20P)
More flights by this aircraft type
Origin: KBUR Bob Hope-Burbank
United States
Destination: KLAS McCarran Intl
United States
More flights between these airports :: More routes between these airports
Route: +VNY3 DAG CRESO4
File this flight plan on PilotEdge
Remarks:
Altitude:
(Current/Filed)
15,500ft
Speed:
(Current/Filed)
150kts
Departed: 21-Oct-20 02:59 PM
Arrived: 21-Oct-20 04:29 PM
Distance/Time
Traveled:
193nm/1:29
Distance/Time
To Go:
Arrived

Flight Plot

Page will automatically refresh every two minutes.

Flight plan parsing failed; only flown route is shown


Map Options




Map Legend


Flown Route
Filed Route
Departure Airport
Arrival Airport
Navaid (VOR, NDB)
Fix

Horizontal Profiles

Position Reports

Time Latitude Longitude Heading Altitude Ground
Speed
21-Oct-20 14:42 34.196519 -118.366900 354 722ft 0kts
21-Oct-20 14:43 34.196519 -118.366900 354 722ft 0kts
21-Oct-20 14:44 34.196519 -118.366900 354 727ft 0kts
21-Oct-20 14:45 34.196518 -118.366900 354 726ft 0kts
21-Oct-20 14:46 34.196518 -118.366900 354 726ft 0kts
21-Oct-20 14:47 34.196518 -118.366900 354 726ft 0kts
21-Oct-20 14:48 34.196518 -118.366900 354 726ft 0kts
21-Oct-20 14:49 34.196518 -118.366900 354 726ft 0kts
21-Oct-20 14:50 34.196518 -118.366900 354 726ft 0kts
21-Oct-20 14:51 34.196518 -118.366900 354 726ft 0kts
21-Oct-20 14:52 34.196518 -118.366900 354 726ft 0kts
21-Oct-20 14:53 34.196518 -118.366900 354 726ft 0kts
21-Oct-20 14:54 34.196518 -118.366900 354 726ft 0kts
21-Oct-20 14:55 34.196518 -118.366900 354 726ft 0kts
21-Oct-20 14:56 34.196518 -118.366900 354 726ft 0kts
21-Oct-20 14:57 34.197138 -118.368919 323 729ft 0kts
21-Oct-20 14:58 34.197907 -118.366908 92 725ft 47kts
21-Oct-20 14:59 34.183490 -118.346155 215 1638ft 136kts
21-Oct-20 15:00 34.153807 -118.381889 226 2826ft 160kts
21-Oct-20 15:01 34.122417 -118.420780 226 4028ft 161kts
21-Oct-20 15:02 34.093068 -118.460357 258 5223ft 156kts
21-Oct-20 15:03 34.125751 -118.477900 2 6434ft 153kts
21-Oct-20 15:04 34.166635 -118.475073 3 7591ft 150kts
21-Oct-20 15:05 34.207820 -118.469489 8 8789ft 147kts
21-Oct-20 15:06 34.247955 -118.463711 3 9990ft 143kts
21-Oct-20 15:07 34.285206 -118.451130 27 11193ft 138kts
21-Oct-20 15:08 34.318231 -118.429455 28 12348ft 136kts
21-Oct-20 15:09 34.353167 -118.406347 28 13269ft 147kts
21-Oct-20 15:10 34.389632 -118.383002 27 14164ft 148kts
21-Oct-20 15:11 34.426450 -118.359413 26 14937ft 155kts
21-Oct-20 15:12 34.466258 -118.328838 42 15009ft 181kts
21-Oct-20 15:13 34.499102 -118.280702 51 15017ft 187kts
21-Oct-20 15:14 34.531795 -118.231616 51 15019ft 187kts
21-Oct-20 15:15 34.564464 -118.182490 50 15015ft 186kts
21-Oct-20 15:16 34.596783 -118.133956 50 15022ft 186kts
21-Oct-20 15:17 34.628573 -118.084167 68 15029ft 186kts
21-Oct-20 15:18 34.636490 -118.022347 85 15026ft 185kts
21-Oct-20 15:19 34.644317 -117.960319 87 15026ft 185kts
21-Oct-20 15:20 34.652025 -117.898412 84 15025ft 185kts
21-Oct-20 15:21 34.658381 -117.836354 82 15024ft 185kts
21-Oct-20 15:22 34.665515 -117.774274 82 15025ft 186kts
21-Oct-20 15:23 34.678464 -117.713532 74 15024ft 186kts
21-Oct-20 15:24 34.692632 -117.653383 74 15023ft 185kts
21-Oct-20 15:25 34.707555 -117.593250 73 15026ft 186kts
21-Oct-20 15:26 34.722542 -117.532991 73 15023ft 185kts
21-Oct-20 15:27 34.737914 -117.473023 73 15023ft 185kts
21-Oct-20 15:28 34.752682 -117.413181 73 15024ft 185kts
21-Oct-20 15:29 34.767459 -117.353040 73 15023ft 185kts
21-Oct-20 15:30 34.782252 -117.292949 73 15022ft 185kts
21-Oct-20 15:31 34.796999 -117.232644 73 15022ft 185kts
21-Oct-20 15:32 34.811666 -117.172629 73 15021ft 185kts
21-Oct-20 15:33 34.826330 -117.112278 73 15020ft 186kts
21-Oct-20 15:34 34.840995 -117.051856 73 15022ft 186kts
21-Oct-20 15:35 34.855646 -116.991324 73 15016ft 186kts
21-Oct-20 15:36 34.868002 -116.930534 71 14999ft 186kts
21-Oct-20 15:37 34.884544 -116.870615 71 14994ft 186kts
21-Oct-20 15:38 34.900978 -116.810733 71 14992ft 186kts
21-Oct-20 15:39 34.917459 -116.750588 71 14990ft 186kts
21-Oct-20 15:40 34.933700 -116.690674 71 14987ft 186kts
21-Oct-20 15:41 34.949962 -116.630488 71 14984ft 186kts
21-Oct-20 15:42 34.967485 -116.571049 60 14982ft 186kts
21-Oct-20 15:43 34.990536 -116.514413 59 14979ft 186kts
21-Oct-20 15:44 35.016526 -116.459673 59 14976ft 186kts
21-Oct-20 15:45 35.042280 -116.405036 60 14974ft 186kts
21-Oct-20 15:46 35.067141 -116.349440 61 14974ft 186kts
21-Oct-20 15:47 35.091479 -116.293558 61 14998ft 186kts
21-Oct-20 15:48 35.115801 -116.237659 61 14997ft 186kts
21-Oct-20 15:49 35.140216 -116.181751 61 14995ft 186kts
21-Oct-20 15:51 35.164630 -116.126037 61 14996ft 186kts
21-Oct-20 15:52 35.189212 -116.070101 61 14994ft 186kts
21-Oct-20 15:53 35.213680 -116.014555 61 14827ft 180kts
21-Oct-20 15:54 35.238003 -115.959704 61 12834ft 185kts
21-Oct-20 15:55 35.262427 -115.904370 61 10827ft 183kts
21-Oct-20 15:56 35.285723 -115.851137 61 10030ft 177kts
21-Oct-20 15:57 35.311603 -115.797663 47 10005ft 185kts
21-Oct-20 15:58 35.347207 -115.752032 48 10005ft 185kts
21-Oct-20 15:59 35.378678 -115.701975 52 10008ft 185kts
21-Oct-20 16:00 35.413623 -115.655513 45 10008ft 185kts
21-Oct-20 16:01 35.449544 -115.610118 45 10015ft 185kts
21-Oct-20 16:02 35.485502 -115.564620 45 10011ft 185kts
21-Oct-20 16:03 35.521214 -115.519318 47 10006ft 184kts
21-Oct-20 16:04 35.552140 -115.468919 46 10011ft 185kts
21-Oct-20 16:05 35.587990 -115.423513 45 10011ft 185kts
21-Oct-20 16:06 35.623858 -115.378119 45 10011ft 185kts
21-Oct-20 16:07 35.658119 -115.330772 57 10012ft 185kts
21-Oct-20 16:08 35.691927 -115.283201 45 10010ft 185kts
21-Oct-20 16:09 35.727752 -115.237359 47 10009ft 185kts
21-Oct-20 16:09 35.756569 -115.198310 47 10008ft 185kts
21-Oct-20 16:11 35.795894 -115.141959 50 10005ft 186kts
21-Oct-20 16:11 35.823290 -115.100690 48 10005ft 186kts
21-Oct-20 16:13 35.864504 -115.046429 46 10002ft 186kts
21-Oct-20 16:13 35.894126 -115.007549 46 10000ft 186kts
21-Oct-20 16:14 35.927817 -114.958989 49 9999ft 187kts
21-Oct-20 16:15 35.962017 -114.910534 46 9997ft 187kts
21-Oct-20 16:16 35.997618 -114.863605 46 10000ft 187kts
21-Oct-20 16:17 36.041025 -114.850791 332 9995ft 182kts
21-Oct-20 16:18 36.082612 -114.876657 332 10004ft 146kts
21-Oct-20 16:19 36.119411 -114.899347 332 10002ft 154kts
21-Oct-20 16:20 36.159128 -114.924160 332 8368ft 165kts
21-Oct-20 16:21 36.188729 -114.961696 272 6462ft 159kts
21-Oct-20 16:22 36.190061 -115.012130 272 6016ft 143kts
21-Oct-20 16:23 36.191250 -115.061559 272 5874ft 147kts
21-Oct-20 16:24 36.183831 -115.108080 212 5296ft 150kts
21-Oct-20 16:25 36.149007 -115.128655 203 3840ft 126kts
21-Oct-20 16:26 36.117422 -115.146143 205 2920ft 122kts
21-Oct-20 16:27 36.091732 -115.160943 202 2126ft 62kts
21-Oct-20 16:28 36.089337 -115.163557 263 2143ft 0kts

Navigation Log

Ident Type
Flight plan parsing failed, navigation log unavailable